sensor_id;sensor_type;location;lat;lon;timestamp;P1;durP1;ratioP1;P2;durP2;ratioP2
7941;SDS011;4016;50.758;7.150;2023-03-03T00:04:55;8.33;;;5.63;;
7941;SDS011;4016;50.758;7.150;2023-03-03T00:09:55;7.30;;;5.17;;
7941;SDS011;4016;50.758;7.150;2023-03-03T00:14:56;6.60;;;4.80;;
7941;SDS011;4016;50.758;7.150;2023-03-03T00:19:57;6.73;;;5.13;;
7941;SDS011;4016;50.758;7.150;2023-03-03T00:30:28;7.33;;;5.23;;
7941;SDS011;4016;50.758;7.150;2023-03-03T00:35:30;6.53;;;5.27;;
7941;SDS011;4016;50.758;7.150;2023-03-03T00:40:38;5.20;;;4.43;;
7941;SDS011;4016;50.758;7.150;2023-03-03T00:45:43;7.73;;;5.23;;
7941;SDS011;4016;50.758;7.150;2023-03-03T00:50:46;7.40;;;5.17;;
7941;SDS011;4016;50.758;7.150;2023-03-03T00:55:48;8.30;;;4.87;;
7941;SDS011;4016;50.758;7.150;2023-03-03T01:00:50;8.37;;;5.00;;
7941;SDS011;4016;50.758;7.150;2023-03-03T01:05:52;8.40;;;5.23;;
7941;SDS011;4016;50.758;7.150;2023-03-03T01:10:55;9.27;;;5.50;;
7941;SDS011;4016;50.758;7.150;2023-03-03T01:15:58;5.87;;;5.10;;
7941;SDS011;4016;50.758;7.150;2023-03-03T01:20:59;8.83;;;6.17;;
7941;SDS011;4016;50.758;7.150;2023-03-03T01:26:01;8.70;;;5.97;;
7941;SDS011;4016;50.758;7.150;2023-03-03T01:31:02;11.03;;;6.97;;
7941;SDS011;4016;50.758;7.150;2023-03-03T01:36:04;10.97;;;7.60;;
7941;SDS011;4016;50.758;7.150;2023-03-03T01:41:05;10.80;;;7.17;;
7941;SDS011;4016;50.758;7.150;2023-03-03T01:51:22;8.30;;;5.83;;
7941;SDS011;4016;50.758;7.150;2023-03-03T01:56:46;8.90;;;6.20;;
7941;SDS011;4016;50.758;7.150;2023-03-03T02:01:48;12.40;;;6.20;;
7941;SDS011;4016;50.758;7.150;2023-03-03T02:06:50;9.70;;;5.93;;
7941;SDS011;4016;50.758;7.150;2023-03-03T02:11:56;9.37;;;6.70;;
7941;SDS011;4016;50.758;7.150;2023-03-03T02:16:59;10.80;;;6.73;;
7941;SDS011;4016;50.758;7.150;2023-03-03T02:22:00;14.23;;;6.93;;
7941;SDS011;4016;50.758;7.150;2023-03-03T02:27:01;10.97;;;7.57;;
7941;SDS011;4016;50.758;7.150;2023-03-03T02:32:02;9.87;;;6.47;;
7941;SDS011;4016;50.758;7.150;2023-03-03T02:37:02;8.47;;;6.97;;
7941;SDS011;4016;50.758;7.150;2023-03-03T02:42:12;9.87;;;6.97;;
7941;SDS011;4016;50.758;7.150;2023-03-03T02:47:18;12.10;;;7.83;;
7941;SDS011;4016;50.758;7.150;2023-03-03T02:52:19;12.80;;;7.67;;
7941;SDS011;4016;50.758;7.150;2023-03-03T02:57:19;9.27;;;7.23;;
7941;SDS011;4016;50.758;7.150;2023-03-03T03:02:19;11.83;;;8.13;;
7941;SDS011;4016;50.758;7.150;2023-03-03T03:07:20;11.00;;;8.00;;
7941;SDS011;4016;50.758;7.150;2023-03-03T03:12:20;12.40;;;8.13;;
7941;SDS011;4016;50.758;7.150;2023-03-03T03:17:21;17.50;;;8.20;;
7941;SDS011;4016;50.758;7.150;2023-03-03T03:22:21;12.17;;;8.03;;
7941;SDS011;4016;50.758;7.150;2023-03-03T03:27:21;15.03;;;8.97;;
7941;SDS011;4016;50.758;7.150;2023-03-03T03:32:22;9.37;;;6.67;;
7941;SDS011;4016;50.758;7.150;2023-03-03T03:37:22;12.40;;;7.70;;
7941;SDS011;4016;50.758;7.150;2023-03-03T03:42:23;12.30;;;6.83;;
7941;SDS011;4016;50.758;7.150;2023-03-03T03:47:23;11.73;;;7.60;;
7941;SDS011;4016;50.758;7.150;2023-03-03T03:52:24;14.83;;;8.67;;
7941;SDS011;4016;50.758;7.150;2023-03-03T03:57:24;11.23;;;7.97;;
7941;SDS011;4016;50.758;7.150;2023-03-03T04:02:25;9.00;;;7.00;;
7941;SDS011;4016;50.758;7.150;2023-03-03T04:07:25;11.03;;;7.80;;
7941;SDS011;4016;50.758;7.150;2023-03-03T04:12:25;12.63;;;8.43;;
7941;SDS011;4016;50.758;7.150;2023-03-03T04:17:26;13.07;;;8.40;;
7941;SDS011;4016;50.758;7.150;2023-03-03T04:22:26;13.30;;;8.20;;
7941;SDS011;4016;50.758;7.150;2023-03-03T04:27:27;11.80;;;8.73;;
7941;SDS011;4016;50.758;7.150;2023-03-03T04:32:27;13.17;;;8.83;;
7941;SDS011;4016;50.758;7.150;2023-03-03T04:37:29;15.57;;;10.20;;
7941;SDS011;4016;50.758;7.150;2023-03-03T04:42:29;15.37;;;10.57;;
7941;SDS011;4016;50.758;7.150;2023-03-03T04:47:30;14.13;;;9.93;;
7941;SDS011;4016;50.758;7.150;2023-03-03T04:52:31;14.17;;;9.63;;
7941;SDS011;4016;50.758;7.150;2023-03-03T04:57:31;13.27;;;8.93;;
7941;SDS011;4016;50.758;7.150;2023-03-03T05:02:32;13.93;;;10.57;;
7941;SDS011;4016;50.758;7.150;2023-03-03T05:07:32;14.73;;;9.53;;
7941;SDS011;4016;50.758;7.150;2023-03-03T05:12:32;16.47;;;8.53;;
7941;SDS011;4016;50.758;7.150;2023-03-03T05:17:33;17.67;;;10.63;;
7941;SDS011;4016;50.758;7.150;2023-03-03T05:22:33;14.13;;;9.37;;
7941;SDS011;4016;50.758;7.150;2023-03-03T05:27:34;17.47;;;9.80;;
7941;SDS011;4016;50.758;7.150;2023-03-03T05:32:34;15.07;;;10.23;;
7941;SDS011;4016;50.758;7.150;2023-03-03T05:37:35;17.57;;;9.27;;
7941;SDS011;4016;50.758;7.150;2023-03-03T05:42:35;20.23;;;10.43;;
7941;SDS011;4016;50.758;7.150;2023-03-03T05:47:35;15.13;;;9.77;;
7941;SDS011;4016;50.758;7.150;2023-03-03T05:52:36;23.17;;;12.27;;
7941;SDS011;4016;50.758;7.150;2023-03-03T05:57:37;14.53;;;10.40;;
7941;SDS011;4016;50.758;7.150;2023-03-03T06:02:37;17.37;;;10.03;;
7941;SDS011;4016;50.758;7.150;2023-03-03T06:07:38;18.50;;;9.97;;
7941;SDS011;4016;50.758;7.150;2023-03-03T06:12:39;19.17;;;9.80;;
7941;SDS011;4016;50.758;7.150;2023-03-03T06:17:41;17.63;;;10.43;;
7941;SDS011;4016;50.758;7.150;2023-03-03T06:22:41;20.67;;;11.27;;
7941;SDS011;4016;50.758;7.150;2023-03-03T06:27:41;18.20;;;10.47;;
7941;SDS011;4016;50.758;7.150;2023-03-03T06:32:42;19.00;;;11.17;;
7941;SDS011;4016;50.758;7.150;2023-03-03T06:37:42;18.67;;;12.57;;
7941;SDS011;4016;50.758;7.150;2023-03-03T06:42:43;18.60;;;11.07;;
7941;SDS011;4016;50.758;7.150;2023-03-03T06:47:43;17.73;;;10.37;;
7941;SDS011;4016;50.758;7.150;2023-03-03T06:52:43;20.17;;;12.33;;
7941;SDS011;4016;50.758;7.150;2023-03-03T06:57:44;21.20;;;13.80;;
7941;SDS011;4016;50.758;7.150;2023-03-03T07:02:45;18.30;;;11.33;;
7941;SDS011;4016;50.758;7.150;2023-03-03T07:07:47;18.77;;;11.47;;
7941;SDS011;4016;50.758;7.150;2023-03-03T07:12:47;20.13;;;11.40;;
7941;SDS011;4016;50.758;7.150;2023-03-03T07:17:48;21.80;;;11.90;;
7941;SDS011;4016;50.758;7.150;2023-03-03T07:22:51;19.27;;;12.63;;
7941;SDS011;4016;50.758;7.150;2023-03-03T07:27:53;23.73;;;12.53;;
7941;SDS011;4016;50.758;7.150;2023-03-03T07:32:59;18.33;;;11.97;;
7941;SDS011;4016;50.758;7.150;2023-03-03T07:37:59;23.80;;;13.97;;
7941;SDS011;4016;50.758;7.150;2023-03-03T07:43:00;19.30;;;11.70;;
7941;SDS011;4016;50.758;7.150;2023-03-03T07:48:29;26.60;;;12.50;;
7941;SDS011;4016;50.758;7.150;2023-03-03T07:53:35;19.87;;;12.10;;
7941;SDS011;4016;50.758;7.150;2023-03-03T07:58:37;18.03;;;11.60;;
7941;SDS011;4016;50.758;7.150;2023-03-03T08:03:39;22.67;;;11.93;;
7941;SDS011;4016;50.758;7.150;2023-03-03T08:08:41;20.80;;;9.93;;
7941;SDS011;4016;50.758;7.150;2023-03-03T08:13:44;21.03;;;12.33;;
7941;SDS011;4016;50.758;7.150;2023-03-03T08:23:46;16.70;;;10.40;;
7941;SDS011;4016;50.758;7.150;2023-03-03T08:28:50;16.80;;;11.30;;
7941;SDS011;4016;50.758;7.150;2023-03-03T08:33:52;21.87;;;10.83;;
7941;SDS011;4016;50.758;7.150;2023-03-03T08:38:52;17.73;;;10.07;;
7941;SDS011;4016;50.758;7.150;2023-03-03T08:43:52;19.30;;;11.97;;
7941;SDS011;4016;50.758;7.150;2023-03-03T08:48:53;19.47;;;10.57;;
7941;SDS011;4016;50.758;7.150;2023-03-03T08:53:53;17.43;;;10.10;;
7941;SDS011;4016;50.758;7.150;2023-03-03T08:58:54;16.53;;;9.63;;
7941;SDS011;4016;50.758;7.150;2023-03-03T09:03:54;22.10;;;11.70;;
7941;SDS011;4016;50.758;7.150;2023-03-03T09:08:55;20.27;;;11.27;;
7941;SDS011;4016;50.758;7.150;2023-03-03T09:14:06;17.47;;;10.77;;
7941;SDS011;4016;50.758;7.150;2023-03-03T09:19:30;21.00;;;10.67;;
7941;SDS011;4016;50.758;7.150;2023-03-03T09:24:34;17.93;;;10.77;;
7941;SDS011;4016;50.758;7.150;2023-03-03T09:29:38;20.43;;;10.73;;
7941;SDS011;4016;50.758;7.150;2023-03-03T09:34:40;21.17;;;10.63;;
7941;SDS011;4016;50.758;7.150;2023-03-03T09:39:41;15.63;;;9.93;;
7941;SDS011;4016;50.758;7.150;2023-03-03T09:50:07;16.57;;;9.13;;
7941;SDS011;4016;50.758;7.150;2023-03-03T10:11:18;19.63;;;10.00;;
7941;SDS011;4016;50.758;7.150;2023-03-03T10:21:49;17.63;;;9.43;;
7941;SDS011;4016;50.758;7.150;2023-03-03T10:32:26;17.13;;;9.47;;
7941;SDS011;4016;50.758;7.150;2023-03-03T10:37:51;19.10;;;10.20;;
7941;SDS011;4016;50.758;7.150;2023-03-03T10:43:24;11.47;;;8.50;;
7941;SDS011;4016;50.758;7.150;2023-03-03T10:59:39;14.10;;;8.43;;
7941;SDS011;4016;50.758;7.150;2023-03-03T11:05:00;16.63;;;8.60;;
7941;SDS011;4016;50.758;7.150;2023-03-03T11:10:14;16.83;;;9.87;;
7941;SDS011;4016;50.758;7.150;2023-03-03T11:21:07;20.00;;;9.57;;
7941;SDS011;4016;50.758;7.150;2023-03-03T11:26:24;17.40;;;9.27;;
7941;SDS011;4016;50.758;7.150;2023-03-03T11:31:46;15.53;;;8.53;;
7941;SDS011;4016;50.758;7.150;2023-03-03T11:36:56;14.60;;;8.33;;
7941;SDS011;4016;50.758;7.150;2023-03-03T11:42:14;21.10;;;12.07;;
7941;SDS011;4016;50.758;7.150;2023-03-03T11:47:23;18.67;;;11.13;;
7941;SDS011;4016;50.758;7.150;2023-03-03T11:57:45;17.93;;;10.03;;
7941;SDS011;4016;50.758;7.150;2023-03-03T12:08:22;12.87;;;7.53;;
7941;SDS011;4016;50.758;7.150;2023-03-03T12:34:54;20.23;;;11.80;;
7941;SDS011;4016;50.758;7.150;2023-03-03T12:40:08;16.13;;;9.97;;
7941;SDS011;4016;50.758;7.150;2023-03-03T12:51:05;16.87;;;9.30;;
7941;SDS011;4016;50.758;7.150;2023-03-03T12:56:17;17.10;;;10.97;;
7941;SDS011;4016;50.758;7.150;2023-03-03T13:06:47;23.27;;;13.90;;
7941;SDS011;4016;50.758;7.150;2023-03-03T13:12:08;20.77;;;12.83;;
7941;SDS011;4016;50.758;7.150;2023-03-03T13:17:26;25.37;;;14.47;;
7941;SDS011;4016;50.758;7.150;2023-03-03T13:22:40;27.00;;;16.90;;
7941;SDS011;4016;50.758;7.150;2023-03-03T13:27:49;31.13;;;17.20;;
7941;SDS011;4016;50.758;7.150;2023-03-03T13:33:17;25.37;;;15.20;;
7941;SDS011;4016;50.758;7.150;2023-03-03T13:38:26;29.20;;;15.67;;
7941;SDS011;4016;50.758;7.150;2023-03-03T13:43:31;25.07;;;16.37;;
7941;SDS011;4016;50.758;7.150;2023-03-03T14:09:36;27.13;;;15.37;;
7941;SDS011;4016;50.758;7.150;2023-03-03T14:15:32;26.70;;;14.63;;
7941;SDS011;4016;50.758;7.150;2023-03-03T14:20:23;26.80;;;15.37;;
7941;SDS011;4016;50.758;7.150;2023-03-03T14:30:56;22.67;;;13.10;;
7941;SDS011;4016;50.758;7.150;2023-03-03T14:56:54;21.50;;;11.63;;
7941;SDS011;4016;50.758;7.150;2023-03-03T15:02:12;25.00;;;12.47;;
7941;SDS011;4016;50.758;7.150;2023-03-03T15:07:25;29.60;;;11.87;;
7941;SDS011;4016;50.758;7.150;2023-03-03T15:17:33;32.83;;;15.07;;
7941;SDS011;4016;50.758;7.150;2023-03-03T15:27:48;26.37;;;13.17;;
7941;SDS011;4016;50.758;7.150;2023-03-03T15:38:48;27.17;;;14.10;;
7941;SDS011;4016;50.758;7.150;2023-03-03T15:44:20;29.80;;;14.53;;
7941;SDS011;4016;50.758;7.150;2023-03-03T16:26:47;28.57;;;14.43;;
7941;SDS011;4016;50.758;7.150;2023-03-03T16:42:25;31.53;;;13.97;;
7941;SDS011;4016;50.758;7.150;2023-03-03T16:52:52;28.93;;;13.87;;
7941;SDS011;4016;50.758;7.150;2023-03-03T17:08:55;31.17;;;15.07;;
7941;SDS011;4016;50.758;7.150;2023-03-03T17:14:40;32.77;;;15.27;;
7941;SDS011;4016;50.758;7.150;2023-03-03T17:24:47;27.37;;;13.20;;
7941;SDS011;4016;50.758;7.150;2023-03-03T17:35:40;31.53;;;16.17;;
7941;SDS011;4016;50.758;7.150;2023-03-03T17:46:03;30.27;;;15.80;;
7941;SDS011;4016;50.758;7.150;2023-03-03T17:56:27;34.13;;;16.40;;
7941;SDS011;4016;50.758;7.150;2023-03-03T18:23:49;33.97;;;16.33;;
7941;SDS011;4016;50.758;7.150;2023-03-03T18:28:50;28.80;;;15.33;;
7941;SDS011;4016;50.758;7.150;2023-03-03T18:34:08;30.40;;;15.23;;
7941;SDS011;4016;50.758;7.150;2023-03-03T18:40:14;33.17;;;15.53;;
7941;SDS011;4016;50.758;7.150;2023-03-03T18:50:29;36.17;;;16.27;;
7941;SDS011;4016;50.758;7.150;2023-03-03T18:55:39;33.33;;;16.30;;
7941;SDS011;4016;50.758;7.150;2023-03-03T19:00:44;21.37;;;13.47;;
7941;SDS011;4016;50.758;7.150;2023-03-03T19:06:09;42.13;;;16.33;;
7941;SDS011;4016;50.758;7.150;2023-03-03T19:16:33;34.37;;;16.33;;
7941;SDS011;4016;50.758;7.150;2023-03-03T19:21:36;36.87;;;16.97;;
7941;SDS011;4016;50.758;7.150;2023-03-03T20:14:47;31.17;;;15.10;;
7941;SDS011;4016;50.758;7.150;2023-03-03T20:25:47;37.63;;;16.70;;
7941;SDS011;4016;50.758;7.150;2023-03-03T20:57:41;43.97;;;18.93;;
7941;SDS011;4016;50.758;7.150;2023-03-03T21:07:59;35.97;;;18.23;;
7941;SDS011;4016;50.758;7.150;2023-03-03T21:13:20;33.07;;;17.13;;
7941;SDS011;4016;50.758;7.150;2023-03-03T21:18:27;40.07;;;19.37;;
7941;SDS011;4016;50.758;7.150;2023-03-03T21:23:28;38.13;;;18.50;;
7941;SDS011;4016;50.758;7.150;2023-03-03T21:28:29;41.87;;;17.97;;
7941;SDS011;4016;50.758;7.150;2023-03-03T21:38:42;35.43;;;18.63;;
7941;SDS011;4016;50.758;7.150;2023-03-03T21:43:45;44.00;;;17.53;;
7941;SDS011;4016;50.758;7.150;2023-03-03T21:48:48;42.70;;;21.07;;
7941;SDS011;4016;50.758;7.150;2023-03-03T21:53:49;43.20;;;20.23;;
7941;SDS011;4016;50.758;7.150;2023-03-03T21:58:49;41.83;;;21.17;;
7941;SDS011;4016;50.758;7.150;2023-03-03T22:03:49;50.37;;;21.20;;
7941;SDS011;4016;50.758;7.150;2023-03-03T22:08:50;35.73;;;19.13;;
7941;SDS011;4016;50.758;7.150;2023-03-03T22:13:50;42.17;;;19.43;;
7941;SDS011;4016;50.758;7.150;2023-03-03T22:18:51;41.13;;;19.10;;
7941;SDS011;4016;50.758;7.150;2023-03-03T22:23:51;37.57;;;17.10;;
7941;SDS011;4016;50.758;7.150;2023-03-03T22:28:52;43.37;;;20.63;;
7941;SDS011;4016;50.758;7.150;2023-03-03T22:33:52;39.73;;;19.77;;
7941;SDS011;4016;50.758;7.150;2023-03-03T22:38:53;45.23;;;20.50;;
7941;SDS011;4016;50.758;7.150;2023-03-03T22:43:53;45.10;;;20.27;;
7941;SDS011;4016;50.758;7.150;2023-03-03T22:48:53;45.20;;;20.23;;
7941;SDS011;4016;50.758;7.150;2023-03-03T22:53:54;46.10;;;20.13;;
7941;SDS011;4016;50.758;7.150;2023-03-03T22:58:54;43.73;;;20.93;;
7941;SDS011;4016;50.758;7.150;2023-03-03T23:03:55;40.67;;;19.47;;
7941;SDS011;4016;50.758;7.150;2023-03-03T23:08:55;48.67;;;23.07;;
7941;SDS011;4016;50.758;7.150;2023-03-03T23:13:56;44.27;;;22.13;;
7941;SDS011;4016;50.758;7.150;2023-03-03T23:18:56;59.33;;;24.17;;
7941;SDS011;4016;50.758;7.150;2023-03-03T23:23:56;50.40;;;22.37;;
7941;SDS011;4016;50.758;7.150;2023-03-03T23:28:57;46.77;;;21.03;;
7941;SDS011;4016;50.758;7.150;2023-03-03T23:33:57;49.40;;;21.17;;
7941;SDS011;4016;50.758;7.150;2023-03-03T23:38:58;48.23;;;21.10;;
7941;SDS011;4016;50.758;7.150;2023-03-03T23:43:58;45.30;;;19.23;;
7941;SDS011;4016;50.758;7.150;2023-03-03T23:48:59;41.00;;;18.70;;
7941;SDS011;4016;50.758;7.150;2023-03-03T23:54:01;48.07;;;20.50;;
7941;SDS011;4016;50.758;7.150;2023-03-03T23:59:01;39.63;;;18.23;;
